ASN logo
ASN Wikibase Occurrence # 226091
Last updated: 18 June 2020
This information is added by users of ASN. Neither ASN nor the Flight Safety Foundation are responsible for the completeness or correctness of this information. If you feel this information is incomplete or incorrect, you can submit corrected information.

Date:11-JUN-2019
Time:03:32 UTC
Type:Silhouette image of generic B738 model; specific model in this crash may look slightly different
Boeing 737-8V3 (WL)
Owner/operator:SpiceJet
Registration: VT-SLI
C/n / msn: 29670
Fatalities:Fatalities: 0 / Occupants: 189
Other fatalities:0
Aircraft damage: Minor
Location:Jaipur Airport -   India
Phase: Landing
Nature:International Scheduled Passenger
Departure airport:Dubai Airport (DXB/OMDB)
Destination airport:Jaipur International Airport (JAI/VIJP)
Narrative:
SpiceJet flight SG58, a Boeing 737-800, suffered a right-hand main gear tire burst on landing on runway 27 at Jaipur Airport, India.

Weather at the time of landing was reported being:
VIJP 110330Z 30010KT 4000 HZ SCT035 SCT100 37/15 Q1001 NOSIG

Sources:

https://www.flightradar24.com/data/flights/sg58#20dbf74e


Revision history:

Date/timeContributorUpdates
12-Jun-2019 05:37 harro Added
12-Jun-2019 07:12 harro Updated [Total occupants, Destination airport, Embed code, Narrative]

Corrections or additions? ... Edit this accident description